Time;durP1;ratioP1;P1;durP2;ratioP2;P2;SDS_P1;SDS_P2;PMS_P1;PMS_P2;Temp;Humidity;BMP_temperature;BMP_pressure;BME280_temperature;BME280_humidity;BME280_pressure;Samples;Min_cycle;Max_cycle;Signal;HPM_P1;HPM_P2
2023/06/23 00:01:17;;;;;;;1.88;1.70;;;;;;;;;;5053932;28;20558;-69
2023/06/23 00:03:45;;;;;;;3.53;1.45;;;;;;;;;;5029340;28;20025;-69
2023/06/23 00:06:11;;;;;;;4.82;1.67;;;;;;;;;;5040516;28;20660;-68
2023/06/23 00:08:40;;;;;;;2.55;1.50;;;;;;;;;;5047263;28;20020;-68
2023/06/23 00:11:10;;;;;;;2.92;1.50;;;;;;;;;;5030747;28;20425;-68
2023/06/23 00:13:37;;;;;;;4.00;1.40;;;;;;;;;;5048375;28;20470;-67
2023/06/23 00:16:07;;;;;;;1.60;1.50;;;;;;;;;;5050785;28;20044;-69
2023/06/23 00:18:36;;;;;;;9.32;3.03;;;;;;;;;;5043214;28;20119;-68
2023/06/23 00:21:06;;;;;;;4.22;1.75;;;;;;;;;;5035993;28;20092;-68
2023/06/23 00:23:33;;;;;;;1.95;1.75;;;;;;;;;;5051786;28;20036;-68
2023/06/23 00:25:59;;;;;;;2.97;1.85;;;;;;;;;;5033897;28;20048;-65
2023/06/23 00:28:24;;;;;;;1.77;1.67;;;;;;;;;;5027640;28;20040;-67
2023/06/23 00:30:53;;;;;;;3.30;1.75;;;;;;;;;;5033841;28;20029;-69
2023/06/23 00:33:19;;;;;;;2.10;1.63;;;;;;;;;;5049575;28;20026;-66
2023/06/23 00:35:45;;;;;;;4.63;1.80;;;;;;;;;;5040273;28;20036;-68
2023/06/23 00:38:10;;;;;;;2.70;1.70;;;;;;;;;;5053257;28;20025;-67
2023/06/23 00:40:36;;;;;;;5.10;1.67;;;;;;;;;;5051769;28;20057;-67
2023/06/23 00:43:02;;;;;;;2.50;1.98;;;;;;;;;;5032470;28;20085;-68
2023/06/23 00:45:28;;;;;;;5.15;2.05;;;;;;;;;;5053698;28;20045;-67
2023/06/23 00:47:54;;;;;;;1.70;1.60;;;;;;;;;;5055424;28;20486;-68
2023/06/23 00:50:21;;;;;;;2.15;1.85;;;;;;;;;;5042308;28;20036;-67
2023/06/23 00:52:51;;;;;;;4.88;1.58;;;;;;;;;;5028027;28;20056;-68
2023/06/23 00:55:25;;;;;;;3.08;1.77;;;;;;;;;;5057543;28;20048;-68
2023/06/23 00:57:52;;;;;;;3.25;1.85;;;;;;;;;;5054240;28;20040;-67
2023/06/23 01:00:19;;;;;;;1.90;1.80;;;;;;;;;;5057767;28;20045;-67
2023/06/23 01:02:48;;;;;;;2.95;1.60;;;;;;;;;;5039239;28;20470;-68
2023/06/23 01:05:25;;;;;;;1.90;1.67;;;;;;;;;;5051664;28;20041;-68
2023/06/23 01:08:15;;;;;;;3.45;1.85;;;;;;;;;;5056744;28;20446;-68
2023/06/23 01:10:59;;;;;;;1.90;1.70;;;;;;;;;;5056185;28;20064;-68
2023/06/23 01:13:46;;;;;;;2.22;2.03;;;;;;;;;;5053686;28;20033;-68
2023/06/23 01:16:17;;;;;;;1.73;1.63;;;;;;;;;;5027922;28;20132;-67
2023/06/23 01:18:49;;;;;;;3.17;2.10;;;;;;;;;;5057359;28;20029;-68
2023/06/23 01:21:27;;;;;;;3.78;1.92;;;;;;;;;;5022809;28;20503;-68
2023/06/23 01:24:11;;;;;;;6.05;2.08;;;;;;;;;;5039499;28;20044;-68
2023/06/23 01:26:52;;;;;;;2.70;1.85;;;;;;;;;;5045532;28;20045;-67
2023/06/23 01:29:31;;;;;;;1.90;1.80;;;;;;;;;;5047229;28;20033;-68
2023/06/23 01:32:01;;;;;;;2.90;1.98;;;;;;;;;;5035342;28;20060;-68
2023/06/23 01:34:36;;;;;;;2.67;2.08;;;;;;;;;;5048972;28;20033;-67
2023/06/23 01:37:14;;;;;;;2.67;2.30;;;;;;;;;;5036244;28;20038;-67
2023/06/23 01:39:43;;;;;;;3.35;2.60;;;;;;;;;;5035809;28;20080;-67
2023/06/23 01:42:13;;;;;;;2.58;2.38;;;;;;;;;;5052682;28;20040;-68
2023/06/23 01:44:43;;;;;;;2.85;2.20;;;;;;;;;;5027095;28;20074;-68
2023/06/23 01:47:15;;;;;;;2.55;2.35;;;;;;;;;;5052558;28;20116;-67
2023/06/23 01:49:43;;;;;;;7.70;2.92;;;;;;;;;;5057515;28;20043;-68
2023/06/23 01:52:11;;;;;;;3.42;3.13;;;;;;;;;;5056055;28;20440;-68
2023/06/23 01:54:40;;;;;;;4.60;2.20;;;;;;;;;;5037026;28;20093;-68
2023/06/23 01:57:08;;;;;;;3.72;2.70;;;;;;;;;;5023065;28;20041;-68
2023/06/23 01:59:36;;;;;;;2.65;2.45;;;;;;;;;;5034341;28;20037;-68
2023/06/23 02:02:02;;;;;;;5.95;2.70;;;;;;;;;;5055478;28;20149;-68
2023/06/23 02:04:29;;;;;;;3.78;2.63;;;;;;;;;;5055321;28;20040;-67
2023/06/23 02:06:56;;;;;;;6.15;3.03;;;;;;;;;;5022090;28;20040;-68
2023/06/23 02:09:25;;;;;;;3.47;2.72;;;;;;;;;;5050780;28;20398;-68
2023/06/23 02:11:52;;;;;;;3.17;2.72;;;;;;;;;;5054632;28;20056;-68
2023/06/23 02:14:19;;;;;;;4.07;2.72;;;;;;;;;;5054147;28;20032;-68
2023/06/23 02:16:46;;;;;;;7.07;3.00;;;;;;;;;;5041644;28;20055;-68
2023/06/23 02:19:13;;;;;;;3.17;2.47;;;;;;;;;;5047585;28;20024;-69
2023/06/23 02:21:40;;;;;;;4.25;2.50;;;;;;;;;;5046495;28;20033;-68
2023/06/23 02:24:06;;;;;;;3.85;2.90;;;;;;;;;;5022685;28;20033;-68
2023/06/23 02:26:37;;;;;;;7.82;2.80;;;;;;;;;;5035121;28;20047;-68
2023/06/23 02:29:05;;;;;;;2.78;2.58;;;;;;;;;;5053423;28;20033;-67
2023/06/23 02:31:30;;;;;;;5.07;2.92;;;;;;;;;;5055578;28;20044;-69
2023/06/23 02:33:56;;;;;;;5.70;3.53;;;;;;;;;;5031886;28;20026;-68
2023/06/23 02:36:25;;;;;;;4.25;2.55;;;;;;;;;;5038372;28;20037;-70
2023/06/23 02:38:54;;;;;;;4.78;3.25;;;;;;;;;;5049828;28;20029;-69
2023/06/23 02:41:22;;;;;;;3.15;2.85;;;;;;;;;;5028822;28;20045;-69
2023/06/23 02:43:51;;;;;;;3.20;2.90;;;;;;;;;;5034603;28;20045;-71
2023/06/23 02:46:19;;;;;;;3.80;2.45;;;;;;;;;;5045017;28;20181;-70
2023/06/23 02:48:48;;;;;;;3.90;3.53;;;;;;;;;;5020594;28;20029;-70
2023/06/23 02:51:18;;;;;;;2.80;2.53;;;;;;;;;;5054885;28;20550;-69
2023/06/23 02:54:05;;;;;;;3.33;3.00;;;;;;;;;;5045937;28;20021;-72
2023/06/23 02:56:34;;;;;;;3.40;3.10;;;;;;;;;;5056930;28;20452;-69
2023/06/23 02:59:05;;;;;;;5.88;3.13;;;;;;;;;;5056023;28;20036;-70
2023/06/23 03:01:36;;;;;;;3.25;2.90;;;;;;;;;;5020634;28;20041;-69
2023/06/23 03:04:01;;;;;;;6.37;3.27;;;;;;;;;;5038053;28;20111;-69
2023/06/23 03:06:27;;;;;;;6.50;4.03;;;;;;;;;;5039676;28;20106;-69
2023/06/23 03:08:53;;;;;;;6.07;3.30;;;;;;;;;;5055770;28;20043;-69
2023/06/23 03:11:19;;;;;;;4.35;3.22;;;;;;;;;;5051911;28;20037;-70
2023/06/23 03:13:46;;;;;;;3.22;3.03;;;;;;;;;;5051978;28;20025;-70
2023/06/23 03:16:22;;;;;;;5.40;2.95;;;;;;;;;;5051295;28;20076;-70
2023/06/23 03:18:58;;;;;;;10.27;3.63;;;;;;;;;;5056642;28;20059;-70
2023/06/23 03:21:24;;;;;;;2.83;2.63;;;;;;;;;;5045068;28;20045;-69
2023/06/23 03:23:55;;;;;;;4.35;3.17;;;;;;;;;;5053122;28;20024;-70
2023/06/23 03:26:22;;;;;;;7.57;3.20;;;;;;;;;;5051190;28;20059;-71
2023/06/23 03:28:50;;;;;;;3.78;2.88;;;;;;;;;;5021016;28;20039;-69
2023/06/23 03:31:17;;;;;;;3.47;3.17;;;;;;;;;;5050931;28;20032;-70
2023/06/23 03:33:45;;;;;;;3.60;3.30;;;;;;;;;;5048372;28;20036;-71
2023/06/23 03:36:18;;;;;;;3.80;3.42;;;;;;;;;;5054844;28;20040;-69
2023/06/23 03:38:54;;;;;;;4.20;2.85;;;;;;;;;;5056231;28;20080;-70
2023/06/23 03:41:20;;;;;;;5.13;3.35;;;;;;;;;;5036262;28;20053;-70
2023/06/23 03:43:48;;;;;;;3.83;3.42;;;;;;;;;;5047663;28;20025;-69
2023/06/23 03:46:19;;;;;;;6.07;3.65;;;;;;;;;;5048789;28;20482;-69
2023/06/23 03:48:48;;;;;;;9.10;3.72;;;;;;;;;;5043591;28;20533;-69
2023/06/23 03:51:17;;;;;;;5.00;3.90;;;;;;;;;;5049552;28;20041;-70
2023/06/23 03:53:45;;;;;;;5.70;3.58;;;;;;;;;;5036077;28;20029;-71
2023/06/23 03:56:12;;;;;;;7.72;3.50;;;;;;;;;;5038827;28;20474;-69
2023/06/23 03:58:40;;;;;;;3.95;3.60;;;;;;;;;;5052002;28;20055;-70
2023/06/23 04:01:06;;;;;;;5.50;4.03;;;;;;;;;;5041064;28;20102;-71
2023/06/23 04:03:33;;;;;;;4.05;3.60;;;;;;;;;;5037921;28;20077;-70
2023/06/23 04:06:00;;;;;;;4.07;3.58;;;;;;;;;;5019399;28;20041;-69
2023/06/23 04:08:29;;;;;;;5.10;3.38;;;;;;;;;;5055318;28;20044;-71
2023/06/23 04:10:57;;;;;;;4.32;3.20;;;;;;;;;;5035239;28;20112;-70
2023/06/23 04:13:25;;;;;;;7.75;3.63;;;;;;;;;;5052706;28;20094;-70
2023/06/23 04:15:53;;;;;;;6.05;3.88;;;;;;;;;;5051065;28;20053;-68
2023/06/23 04:18:21;;;;;;;5.75;3.10;;;;;;;;;;5043921;28;20055;-71
2023/06/23 04:20:47;;;;;;;5.70;3.60;;;;;;;;;;5039155;28;20042;-72
2023/06/23 04:23:13;;;;;;;3.72;3.13;;;;;;;;;;5044842;28;20090;-72
2023/06/23 04:25:39;;;;;;;8.15;3.40;;;;;;;;;;5056445;28;20205;-73
2023/06/23 04:28:06;;;;;;;3.90;3.50;;;;;;;;;;5054308;28;20162;-72
2023/06/23 04:30:35;;;;;;;4.90;3.55;;;;;;;;;;5050932;28;20037;-71
2023/06/23 04:33:00;;;;;;;5.50;3.55;;;;;;;;;;5055960;28;20640;-74
2023/06/23 04:35:26;;;;;;;3.60;3.30;;;;;;;;;;5055356;28;20101;-72
2023/06/23 04:38:06;;;;;;;4.65;3.33;;;;;;;;;;5053435;28;20119;-73
2023/06/23 04:40:40;;;;;;;4.05;3.28;;;;;;;;;;5042859;28;20034;-72
2023/06/23 04:43:15;;;;;;;5.10;3.38;;;;;;;;;;5035292;28;20032;-75
2023/06/23 04:45:46;;;;;;;3.80;3.38;;;;;;;;;;5031741;28;20569;-72
2023/06/23 04:48:13;;;;;;;3.63;3.30;;;;;;;;;;5057110;28;20513;-71
2023/06/23 04:50:41;;;;;;;3.83;3.53;;;;;;;;;;5052705;28;20037;-72
2023/06/23 04:53:14;;;;;;;4.78;3.47;;;;;;;;;;5038032;28;20029;-73
2023/06/23 04:55:44;;;;;;;4.25;3.85;;;;;;;;;;5040425;28;20041;-73
2023/06/23 04:58:12;;;;;;;5.35;3.88;;;;;;;;;;5056987;28;20025;-73
2023/06/23 05:00:39;;;;;;;6.68;3.65;;;;;;;;;;5044770;28;20071;-73
2023/06/23 05:03:05;;;;;;;3.75;3.38;;;;;;;;;;5040445;28;20036;-74
2023/06/23 05:05:32;;;;;;;5.35;3.70;;;;;;;;;;5045542;28;20502;-73
2023/06/23 05:08:00;;;;;;;5.25;3.58;;;;;;;;;;5055889;28;20049;-75
2023/06/23 05:10:28;;;;;;;5.13;3.28;;;;;;;;;;5052004;28;20529;-72
2023/06/23 05:12:55;;;;;;;6.53;3.47;;;;;;;;;;5040145;28;20052;-73
2023/06/23 05:15:22;;;;;;;10.60;3.33;;;;;;;;;;5033963;28;20399;-73
2023/06/23 05:17:51;;;;;;;3.60;3.30;;;;;;;;;;5019848;28;20028;-75
2023/06/23 05:20:20;;;;;;;4.78;3.92;;;;;;;;;;5034093;28;20072;-73
2023/06/23 05:22:49;;;;;;;4.18;3.67;;;;;;;;;;5054527;28;20116;-74
2023/06/23 05:25:16;;;;;;;4.85;4.00;;;;;;;;;;5039647;28;20056;-73
2023/06/23 05:27:46;;;;;;;5.80;3.83;;;;;;;;;;5033287;28;20056;-73
2023/06/23 05:30:21;;;;;;;6.55;3.85;;;;;;;;;;5042135;28;20037;-73
2023/06/23 05:32:49;;;;;;;5.00;4.22;;;;;;;;;;5054360;28;20021;-75
2023/06/23 05:35:16;;;;;;;3.38;2.95;;;;;;;;;;5048144;28;20410;-72
2023/06/23 05:37:43;;;;;;;4.10;3.70;;;;;;;;;;5051983;28;20036;-71
2023/06/23 05:40:13;;;;;;;7.25;3.72;;;;;;;;;;5032418;28;20118;-73
2023/06/23 05:42:40;;;;;;;8.77;3.50;;;;;;;;;;5053661;28;20033;-71
2023/06/23 05:45:06;;;;;;;5.82;3.80;;;;;;;;;;5049689;28;20033;-71
2023/06/23 05:47:41;;;;;;;8.85;3.80;;;;;;;;;;5053838;28;20032;-70
2023/06/23 05:50:15;;;;;;;6.15;3.60;;;;;;;;;;5053107;28;20043;-71
2023/06/23 05:52:46;;;;;;;4.45;3.47;;;;;;;;;;5041224;28;20017;-71
2023/06/23 05:55:12;;;;;;;5.15;3.38;;;;;;;;;;5053716;28;21495;-72
2023/06/23 05:57:39;;;;;;;6.88;3.88;;;;;;;;;;5049489;28;20028;-73
2023/06/23 06:00:10;;;;;;;7.22;3.80;;;;;;;;;;5032895;28;20028;-73
2023/06/23 06:02:40;;;;;;;4.20;3.53;;;;;;;;;;5051766;28;20028;-72
2023/06/23 06:05:08;;;;;;;5.90;3.35;;;;;;;;;;5029853;28;20098;-71
2023/06/23 06:07:35;;;;;;;6.30;3.70;;;;;;;;;;5052211;28;20422;-72
2023/06/23 06:10:02;;;;;;;3.75;3.30;;;;;;;;;;5048608;28;20641;-71
2023/06/23 06:12:30;;;;;;;8.30;3.80;;;;;;;;;;5051956;28;20032;-73
2023/06/23 06:14:58;;;;;;;7.18;3.88;;;;;;;;;;5035244;28;20025;-71
2023/06/23 06:17:24;;;;;;;6.55;3.60;;;;;;;;;;5049362;28;20409;-73
2023/06/23 06:19:52;;;;;;;6.35;3.88;;;;;;;;;;5050967;28;20058;-73
2023/06/23 06:22:19;;;;;;;5.93;4.65;;;;;;;;;;5033799;28;20021;-73
2023/06/23 06:24:46;;;;;;;4.20;3.80;;;;;;;;;;5041355;28;20041;-72
2023/06/23 06:27:13;;;;;;;22.33;4.00;;;;;;;;;;5026353;28;20049;-73
2023/06/23 06:29:39;;;;;;;5.40;4.00;;;;;;;;;;5025640;28;20017;-71
2023/06/23 06:32:07;;;;;;;3.63;3.33;;;;;;;;;;5036346;28;20502;-71
2023/06/23 06:34:33;;;;;;;4.57;3.45;;;;;;;;;;5029092;28;20029;-71
2023/06/23 06:37:03;;;;;;;8.55;4.20;;;;;;;;;;5038157;28;20367;-72
2023/06/23 06:39:30;;;;;;;26.63;4.07;;;;;;;;;;5052358;28;20060;-71
2023/06/23 06:41:57;;;;;;;5.18;3.45;;;;;;;;;;5040936;28;20418;-72
2023/06/23 06:44:22;;;;;;;8.15;3.65;;;;;;;;;;5035769;28;20052;-72
2023/06/23 06:46:50;;;;;;;6.57;4.03;;;;;;;;;;5017609;28;20045;-70
2023/06/23 06:49:18;;;;;;;4.88;3.80;;;;;;;;;;5051802;28;20048;-74
2023/06/23 06:51:44;;;;;;;6.57;4.28;;;;;;;;;;5035426;28;20056;-72
2023/06/23 06:54:10;;;;;;;5.18;3.50;;;;;;;;;;5037387;28;20080;-72
2023/06/23 06:56:36;;;;;;;6.63;3.28;;;;;;;;;;5037089;28;20115;-71
2023/06/23 06:59:02;;;;;;;6.45;5.28;;;;;;;;;;5053070;28;20029;-71
2023/06/23 07:01:28;;;;;;;6.90;3.85;;;;;;;;;;5049444;28;20041;-72
2023/06/23 07:03:55;;;;;;;5.32;3.83;;;;;;;;;;5052443;28;20040;-73
2023/06/23 07:06:20;;;;;;;5.22;3.60;;;;;;;;;;5038391;28;20048;-70
2023/06/23 07:08:46;;;;;;;6.47;3.30;;;;;;;;;;5038957;28;20359;-71
2023/06/23 07:11:13;;;;;;;9.18;3.90;;;;;;;;;;5054680;28;20090;-72
2023/06/23 07:13:38;;;;;;;7.85;3.85;;;;;;;;;;5053971;28;20033;-73
2023/06/23 07:16:04;;;;;;;5.43;3.50;;;;;;;;;;5039908;28;20060;-75
2023/06/23 07:18:30;;;;;;;8.48;3.60;;;;;;;;;;5033173;28;20370;-77
2023/06/23 07:20:56;;;;;;;5.53;3.67;;;;;;;;;;5035920;28;20552;-74
2023/06/23 07:23:22;;;;;;;6.80;4.07;;;;;;;;;;5044061;28;20037;-74
2023/06/23 07:25:47;;;;;;;8.48;3.60;;;;;;;;;;5049890;28;20036;-73
2023/06/23 07:28:13;;;;;;;4.63;3.80;;;;;;;;;;5037516;28;20039;-74
2023/06/23 07:30:39;;;;;;;12.38;3.60;;;;;;;;;;5048690;28;20037;-73
2023/06/23 07:33:05;;;;;;;8.18;3.33;;;;;;;;;;5039815;28;20083;-74
2023/06/23 07:35:31;;;;;;;6.78;3.58;;;;;;;;;;5034934;28;20041;-72
2023/06/23 07:37:56;;;;;;;8.50;3.67;;;;;;;;;;5054669;28;20103;-72
2023/06/23 07:40:22;;;;;;;7.60;3.65;;;;;;;;;;5038673;28;20079;-75
2023/06/23 07:42:47;;;;;;;4.72;3.42;;;;;;;;;;5034567;28;20090;-76
2023/06/23 07:45:13;;;;;;;6.63;3.40;;;;;;;;;;5029283;28;20052;-70
2023/06/23 07:47:38;;;;;;;5.03;3.45;;;;;;;;;;5053889;28;20501;-73
2023/06/23 07:50:04;;;;;;;8.65;3.33;;;;;;;;;;5041127;28;20021;-73
2023/06/23 07:52:30;;;;;;;10.30;3.75;;;;;;;;;;5043965;28;20037;-74
2023/06/23 07:54:55;;;;;;;5.47;3.13;;;;;;;;;;5037999;28;20159;-73
2023/06/23 07:57:21;;;;;;;3.60;3.30;;;;;;;;;;5048984;28;20024;-74
2023/06/23 07:59:47;;;;;;;12.10;3.60;;;;;;;;;;5057959;28;20025;-67
2023/06/23 08:02:13;;;;;;;9.38;3.30;;;;;;;;;;5045363;28;20025;-73
2023/06/23 08:04:38;;;;;;;10.13;3.40;;;;;;;;;;5034357;28;20090;-72
2023/06/23 08:07:04;;;;;;;5.03;3.53;;;;;;;;;;5036180;28;20045;-72
2023/06/23 08:09:30;;;;;;;9.80;3.80;;;;;;;;;;5047688;28;20053;-72
2023/06/23 08:11:55;;;;;;;4.10;3.70;;;;;;;;;;5053494;28;20037;-72
2023/06/23 08:14:20;;;;;;;7.53;3.67;;;;;;;;;;5043307;28;20032;-72
2023/06/23 08:16:48;;;;;;;10.45;3.85;;;;;;;;;;5050391;28;20052;-71
2023/06/23 08:19:13;;;;;;;6.57;3.50;;;;;;;;;;5053012;28;20432;-71
2023/06/23 08:21:39;;;;;;;11.55;3.08;;;;;;;;;;5031843;28;20116;-72
2023/06/23 08:24:05;;;;;;;7.40;3.30;;;;;;;;;;5049243;28;20090;-71
2023/06/23 08:26:30;;;;;;;4.00;3.63;;;;;;;;;;5033473;28;20040;-69
2023/06/23 08:28:55;;;;;;;5.57;3.20;;;;;;;;;;5038500;28;20062;-69
2023/06/23 08:31:21;;;;;;;7.75;3.75;;;;;;;;;;5043428;28;20072;-73
2023/06/23 08:33:47;;;;;;;4.03;2.83;;;;;;;;;;5051115;28;20035;-70
2023/06/23 08:36:12;;;;;;;7.03;3.40;;;;;;;;;;5052109;28;20120;-74
2023/06/23 08:38:38;;;;;;;8.55;3.47;;;;;;;;;;5048112;28;20550;-75
2023/06/23 08:41:05;;;;;;;6.03;3.33;;;;;;;;;;5039127;28;20696;-69
2023/06/23 08:43:34;;;;;;;3.25;2.95;;;;;;;;;;5018158;28;20032;-70
2023/06/23 08:46:00;;;;;;;3.42;3.03;;;;;;;;;;5029273;28;20028;-72
2023/06/23 08:48:27;;;;;;;5.28;3.20;;;;;;;;;;5029122;28;20172;-73
2023/06/23 08:50:59;;;;;;;9.02;4.22;;;;;;;;;;5052942;28;20044;-68
2023/06/23 08:53:25;;;;;;;4.75;3.30;;;;;;;;;;5053257;28;20036;-68
2023/06/23 08:55:52;;;;;;;4.97;3.05;;;;;;;;;;5046447;28;20041;-70
2023/06/23 08:58:19;;;;;;;5.93;3.00;;;;;;;;;;5049103;28;20041;-69
2023/06/23 09:00:45;;;;;;;6.78;3.20;;;;;;;;;;5045998;28;20041;-69
2023/06/23 09:03:10;;;;;;;5.13;3.50;;;;;;;;;;5033314;28;20028;-70
2023/06/23 09:05:36;;;;;;;8.95;3.00;;;;;;;;;;5031829;28;20044;-70
2023/06/23 09:08:01;;;;;;;3.92;3.30;;;;;;;;;;5057561;28;20039;-70
2023/06/23 09:10:27;;;;;;;4.57;3.03;;;;;;;;;;5049022;28;20040;-70
2023/06/23 09:13:18;;;;;;;5.63;2.60;;;;;;;;;;5055094;28;20029;-69
2023/06/23 09:15:46;;;;;;;3.60;2.97;;;;;;;;;;5054369;28;20095;-68
2023/06/23 09:18:13;;;;;;;8.38;3.00;;;;;;;;;;5063346;28;20084;-69
2023/06/23 09:20:42;;;;;;;7.70;3.53;;;;;;;;;;5044949;28;20048;-68
2023/06/23 09:23:08;;;;;;;13.63;3.92;;;;;;;;;;5039574;28;20033;-69
2023/06/23 09:26:04;;;;;;;8.45;2.80;;;;;;;;;;5025775;28;20105;-69
2023/06/23 09:28:37;;;;;;;3.40;3.00;;;;;;;;;;5039337;28;20419;-70
2023/06/23 09:31:12;;;;;;;4.40;2.80;;;;;;;;;;5038025;28;20128;-69
2023/06/23 09:33:51;;;;;;;4.25;3.08;;;;;;;;;;5056912;28;20423;-69
2023/06/23 09:36:17;;;;;;;8.93;3.05;;;;;;;;;;5052381;28;20033;-69
2023/06/23 09:38:43;;;;;;;3.17;2.88;;;;;;;;;;5051743;28;20032;-70
2023/06/23 09:41:14;;;;;;;9.90;3.13;;;;;;;;;;5038143;28;20155;-70
2023/06/23 09:43:49;;;;;;;10.38;2.88;;;;;;;;;;5026326;28;20033;-70
2023/06/23 09:46:16;;;;;;;3.78;3.03;;;;;;;;;;5039009;28;20072;-69
2023/06/23 09:48:44;;;;;;;3.05;2.80;;;;;;;;;;5037369;28;20120;-69
2023/06/23 09:51:11;;;;;;;4.43;2.88;;;;;;;;;;5048140;28;20045;-69
2023/06/23 09:53:37;;;;;;;10.13;3.15;;;;;;;;;;5055084;28;20095;-70
2023/06/23 09:56:04;;;;;;;3.08;2.88;;;;;;;;;;5056122;28;20037;-69
2023/06/23 09:58:36;;;;;;;3.97;3.08;;;;;;;;;;5035955;28;20061;-70
2023/06/23 10:01:07;;;;;;;7.43;2.85;;;;;;;;;;5052544;28;20069;-69
2023/06/23 10:03:51;;;;;;;10.48;3.28;;;;;;;;;;5041616;28;20020;-68
2023/06/23 10:06:23;;;;;;;23.60;3.90;;;;;;;;;;5054737;28;20033;-69
2023/06/23 10:08:53;;;;;;;9.70;2.80;;;;;;;;;;5054586;28;20028;-69
2023/06/23 10:11:18;;;;;;;35.30;4.05;;;;;;;;;;5053125;28;20037;-69
2023/06/23 10:13:47;;;;;;;6.32;3.33;;;;;;;;;;5048401;28;20059;-69
2023/06/23 10:16:13;;;;;;;8.93;3.10;;;;;;;;;;5035975;28;20537;-69
2023/06/23 10:18:39;;;;;;;4.40;2.78;;;;;;;;;;5042537;28;20025;-69
2023/06/23 10:21:04;;;;;;;9.30;3.03;;;;;;;;;;5040944;28;20045;-69
2023/06/23 10:23:31;;;;;;;4.00;2.83;;;;;;;;;;5033439;28;20028;-69
2023/06/23 10:25:59;;;;;;;4.82;3.00;;;;;;;;;;5049144;28;20049;-68
2023/06/23 10:28:27;;;;;;;3.20;2.90;;;;;;;;;;5034081;28;20043;-68
2023/06/23 10:30:53;;;;;;;9.30;2.92;;;;;;;;;;5048239;28;20064;-68
2023/06/23 10:33:21;;;;;;;7.15;2.60;;;;;;;;;;5052033;28;20090;-69
2023/06/23 10:35:48;;;;;;;5.55;2.85;;;;;;;;;;5038140;28;20131;-68
2023/06/23 10:38:20;;;;;;;2.97;2.65;;;;;;;;;;5040296;28;20032;-69
2023/06/23 10:40:50;;;;;;;3.97;2.80;;;;;;;;;;5053333;28;20048;-68
2023/06/23 10:43:17;;;;;;;12.65;2.70;;;;;;;;;;5053418;28;20057;-68
2023/06/23 10:45:43;;;;;;;4.30;2.50;;;;;;;;;;5050307;28;20045;-68
2023/06/23 10:48:09;;;;;;;3.67;2.65;;;;;;;;;;5041138;28;20043;-68
2023/06/23 10:50:37;;;;;;;4.45;2.90;;;;;;;;;;5045116;28;20402;-69
2023/06/23 10:53:17;;;;;;;3.28;2.65;;;;;;;;;;5042335;28;20051;-69
2023/06/23 10:55:45;;;;;;;6.68;3.05;;;;;;;;;;5037805;28;20044;-68
2023/06/23 10:58:13;;;;;;;6.32;2.45;;;;;;;;;;5050553;28;20049;-68
2023/06/23 11:00:39;;;;;;;3.22;2.70;;;;;;;;;;5035260;28;20046;-69
2023/06/23 11:03:08;;;;;;;14.40;2.80;;;;;;;;;;5036519;28;20036;-70
2023/06/23 11:05:39;;;;;;;3.17;2.88;;;;;;;;;;5035773;28;20520;-69
2023/06/23 11:08:09;;;;;;;7.20;2.80;;;;;;;;;;5050899;28;20036;-69
2023/06/23 11:10:55;;;;;;;4.93;2.70;;;;;;;;;;5054317;28;20025;-69
2023/06/23 11:13:24;;;;;;;3.65;2.65;;;;;;;;;;5051257;28;20055;-69
2023/06/23 11:15:57;;;;;;;4.00;2.58;;;;;;;;;;5054995;28;22133;-69
2023/06/23 11:18:23;;;;;;;2.85;2.50;;;;;;;;;;5047139;28;20051;-69
2023/06/23 11:20:49;;;;;;;5.57;3.17;;;;;;;;;;5052891;28;20033;-68
2023/06/23 11:23:15;;;;;;;4.72;2.63;;;;;;;;;;5027963;28;20021;-68
2023/06/23 11:25:44;;;;;;;5.13;2.50;;;;;;;;;;5053994;28;20039;-69
2023/06/23 11:28:25;;;;;;;9.68;2.95;;;;;;;;;;5054114;28;20033;-69
2023/06/23 11:31:03;;;;;;;;;;;;;;;;;;5034108;28;20033;-68
2023/06/23 11:33:33;;;;;;;3.63;2.30;;;;;;;;;;5027749;28;20425;-70
2023/06/23 11:36:04;;;;;;;8.48;2.80;;;;;;;;;;5050660;28;20037;-70
2023/06/23 11:38:34;;;;;;;4.07;3.17;;;;;;;;;;5022199;28;20025;-69
2023/06/23 11:41:00;;;;;;;10.82;3.25;;;;;;;;;;5053527;28;20044;-70
2023/06/23 11:43:30;;;;;;;9.30;2.55;;;;;;;;;;5055370;28;20052;-72
2023/06/23 11:45:57;;;;;;;4.82;2.50;;;;;;;;;;5019930;28;20047;-70
2023/06/23 11:48:29;;;;;;;5.03;2.78;;;;;;;;;;5034601;28;20022;-71
2023/06/23 11:50:56;;;;;;;11.35;2.75;;;;;;;;;;5014007;28;20441;-70
2023/06/23 11:53:21;;;;;;;5.35;2.70;;;;;;;;;;5045239;28;20033;-70
2023/06/23 11:55:50;;;;;;;7.57;4.10;;;;;;;;;;5039142;28;20040;-69
2023/06/23 11:58:16;;;;;;;6.60;2.70;;;;;;;;;;5049206;28;20024;-70
2023/06/23 12:00:42;;;;;;;3.75;2.65;;;;;;;;;;5031352;28;20076;-69
2023/06/23 12:03:14;;;;;;;5.47;2.95;;;;;;;;;;5038884;28;20033;-69
2023/06/23 12:05:42;;;;;;;9.68;3.38;;;;;;;;;;5032651;28;20514;-69
2023/06/23 12:08:08;;;;;;;5.00;3.03;;;;;;;;;;5051673;28;20035;-70
2023/06/23 12:10:38;;;;;;;9.02;2.67;;;;;;;;;;5047131;28;20025;-69
2023/06/23 12:13:10;;;;;;;10.38;2.75;;;;;;;;;;5048954;28;20506;-69
2023/06/23 12:15:43;;;;;;;2.70;2.50;;;;;;;;;;5035052;28;20049;-69
2023/06/23 12:18:10;;;;;;;3.40;2.85;;;;;;;;;;5036556;28;20037;-68
2023/06/23 12:20:44;;;;;;;7.15;2.47;;;;;;;;;;5048329;28;20033;-69
2023/06/23 12:23:10;;;;;;;5.90;2.72;;;;;;;;;;5052348;28;20035;-68
2023/06/23 12:25:54;;;;;;;3.70;2.65;;;;;;;;;;5036550;28;20032;-69
2023/06/23 12:28:20;;;;;;;11.23;2.42;;;;;;;;;;5032792;28;20032;-68
2023/06/23 12:30:48;;;;;;;3.85;2.60;;;;;;;;;;5052305;28;20038;-69
2023/06/23 12:33:16;;;;;;;13.02;3.13;;;;;;;;;;5054694;28;20035;-69
2023/06/23 12:36:00;;;;;;;8.80;2.70;;;;;;;;;;5053797;28;20029;-70
2023/06/23 12:38:27;;;;;;;7.60;2.60;;;;;;;;;;5050041;28;20021;-68
2023/06/23 12:40:53;;;;;;;9.15;2.80;;;;;;;;;;5033894;28;20041;-69
2023/06/23 12:43:19;;;;;;;6.35;2.78;;;;;;;;;;5046328;28;20021;-68
2023/06/23 12:45:49;;;;;;;10.90;2.33;;;;;;;;;;5042964;28;20037;-71
2023/06/23 12:48:15;;;;;;;9.57;2.80;;;;;;;;;;5036299;28;20036;-72
2023/06/23 12:50:41;;;;;;;13.82;2.60;;;;;;;;;;5036431;28;20029;-67
2023/06/23 12:53:08;;;;;;;9.63;2.70;;;;;;;;;;5052160;28;20723;-67
2023/06/23 12:55:33;;;;;;;6.80;2.80;;;;;;;;;;5053173;28;20444;-69
2023/06/23 12:57:58;;;;;;;4.80;2.83;;;;;;;;;;5004218;28;20024;-71
2023/06/23 13:00:24;;;;;;;12.32;2.88;;;;;;;;;;5049095;28;20037;-68
2023/06/23 13:02:52;;;;;;;8.40;2.60;;;;;;;;;;5045918;28;20493;-69
2023/06/23 13:05:18;;;;;;;6.25;2.70;;;;;;;;;;5033489;28;20529;-70
2023/06/23 13:07:43;;;;;;;7.50;2.60;;;;;;;;;;5050355;28;20037;-69
2023/06/23 13:10:09;;;;;;;6.90;2.65;;;;;;;;;;5028079;28;20037;-68
2023/06/23 13:12:35;;;;;;;4.22;2.67;;;;;;;;;;5053508;28;20138;-69
2023/06/23 13:15:04;;;;;;;6.22;2.55;;;;;;;;;;5011940;28;20025;-70
2023/06/23 13:17:33;;;;;;;8.52;2.90;;;;;;;;;;5034561;28;20056;-71
2023/06/23 13:19:59;;;;;;;3.22;2.63;;;;;;;;;;5055001;28;20057;-70
2023/06/23 13:22:25;;;;;;;10.25;3.10;;;;;;;;;;5035023;28;20352;-71
2023/06/23 13:24:50;;;;;;;4.82;2.47;;;;;;;;;;5023540;28;20061;-71
2023/06/23 13:27:16;;;;;;;7.35;3.13;;;;;;;;;;5052262;28;20028;-69
2023/06/23 13:29:42;;;;;;;13.70;2.35;;;;;;;;;;5054043;28;20048;-69
2023/06/23 13:32:08;;;;;;;8.80;2.75;;;;;;;;;;5048526;28;20041;-68
2023/06/23 13:34:35;;;;;;;3.20;2.30;;;;;;;;;;5031211;28;20024;-69
2023/06/23 13:37:04;;;;;;;7.88;4.43;;;;;;;;;;5059316;28;20033;-68
2023/06/23 13:39:30;;;;;;;6.97;2.70;;;;;;;;;;5054134;28;20033;-70
2023/06/23 13:41:55;;;;;;;5.65;2.97;;;;;;;;;;5034743;28;20048;-70
2023/06/23 13:44:21;;;;;;;8.07;2.67;;;;;;;;;;5054278;28;20064;-72
2023/06/23 13:46:50;;;;;;;9.82;3.10;;;;;;;;;;5040390;28;20040;-70
2023/06/23 13:49:15;;;;;;;7.72;2.67;;;;;;;;;;5032377;28;20028;-70
2023/06/23 13:51:41;;;;;;;3.45;2.58;;;;;;;;;;5036104;28;20033;-69
2023/06/23 13:54:07;;;;;;;14.10;3.03;;;;;;;;;;5048095;28;20029;-69
2023/06/23 13:56:33;;;;;;;8.50;2.75;;;;;;;;;;5056776;28;20124;-69
2023/06/23 13:58:59;;;;;;;10.00;3.10;;;;;;;;;;5054178;28;20108;-70
2023/06/23 14:01:25;;;;;;;8.40;2.95;;;;;;;;;;5032730;28;20094;-68
2023/06/23 14:03:51;;;;;;;7.55;2.78;;;;;;;;;;5034568;28;20099;-70
2023/06/23 14:06:18;;;;;;;3.35;2.38;;;;;;;;;;5012945;28;20064;-69
2023/06/23 14:08:44;;;;;;;8.43;2.58;;;;;;;;;;5043399;28;20025;-70
2023/06/23 14:11:10;;;;;;;6.53;2.85;;;;;;;;;;5050357;28;20056;-69
2023/06/23 14:13:35;;;;;;;7.45;2.40;;;;;;;;;;5052062;28;20067;-69
2023/06/23 14:16:00;;;;;;;9.63;2.65;;;;;;;;;;5050718;28;20049;-69
2023/06/23 14:18:26;;;;;;;6.45;2.65;;;;;;;;;;5051630;28;20029;-69
2023/06/23 14:20:51;;;;;;;4.78;2.92;;;;;;;;;;5036790;28;20041;-69
2023/06/23 14:23:17;;;;;;;9.23;2.53;;;;;;;;;;5036292;28;20052;-69
2023/06/23 14:25:42;;;;;;;15.82;2.90;;;;;;;;;;5037486;28;20041;-70
2023/06/23 14:28:08;;;;;;;9.93;2.70;;;;;;;;;;5042865;28;20466;-70
2023/06/23 14:30:33;;;;;;;14.25;2.85;;;;;;;;;;5054295;28;20401;-70
2023/06/23 14:32:59;;;;;;;7.18;2.70;;;;;;;;;;5053264;28;20060;-70
2023/06/23 14:35:24;;;;;;;7.85;2.40;;;;;;;;;;5029690;28;20320;-71
2023/06/23 14:37:49;;;;;;;7.65;3.05;;;;;;;;;;5043591;28;20032;-69
2023/06/23 14:40:15;;;;;;;8.98;3.08;;;;;;;;;;5040074;28;20033;-70
2023/06/23 14:42:42;;;;;;;9.68;2.40;;;;;;;;;;5048662;28;20089;-69
2023/06/23 14:45:08;;;;;;;9.52;3.85;;;;;;;;;;5036668;28;20045;-71
2023/06/23 14:47:36;;;;;;;4.85;2.95;;;;;;;;;;5045835;28;20108;-70
2023/06/23 14:50:02;;;;;;;9.52;2.67;;;;;;;;;;5055141;28;20467;-69